Flight Track Log - Related Links

Times and Time Zones

All times are in EDT time to prevent confusion due to time zone crossing. See the N290CD flight status page for this flight to view local times or setup timezone preferences in your user account.

Time Position Orientation Groundspeed Altitude Reporting Facility
EDT Latitude Longitude Course Direction KTS MPH feet Rate Location/Type
Fri 02:06:26 PM 35.4603 -78.3717 160° South 105 121 1,500  Level Washington Center
Fri 02:07:03 PM 35.4417 -78.3633 160° South 112 129 1,900 600 Climbing Washington Center
Fri 02:07:36 PM 35.4253 -78.3575 164° South 111 128 2,200 511 Climbing Washington Center
Fri 02:08:37 PM 35.3983 -78.3464 161° South 105 121 2,700 541 Climbing Washington Center
Fri 02:09:38 PM 35.3672 -78.3328 160° South 107 123 3,300 541 Climbing Washington Center
Fri 02:10:39 PM 35.3403 -78.3242 165° South 110 127 3,800 541 Climbing Washington Center
Fri 02:11:40 PM 35.3094 -78.3103 160° South 108 124 4,400 545 Climbing Washington Center
Fri 02:12:40 PM 35.2844 -78.3019 165° South 106 122 4,900 450 Climbing Washington Center
Fri 02:13:40 PM 35.2533 -78.2933 167° South 106 122 5,300 347 Climbing Washington Center
Fri 02:14:41 PM 35.2244 -78.2794 159° South 114 131 5,600 344 Climbing Washington Center
Fri 02:15:42 PM 35.1894 -78.2631 159° South 120 138 6,000 347 Climbing Washington Center
Fri 02:16:42 PM 35.1583 -78.2544 167° South 124 143 6,300 298 Climbing Washington Center
Fri 02:17:43 PM 35.1233 -78.2381 159° South 125 144 6,600 295 Climbing Washington Center
Fri 02:19:00 PM 35.0802 -78.2184 160° South  Level FlightAware Approximate
Fri 02:26:00 PM 34.8428 -78.1184 162° South  Level FlightAware Approximate
Fri 02:27:00 PM 34.8086 -78.1051 162° South  Level FlightAware Approximate
Fri 02:28:00 PM 34.7745 -78.0918 162° South  Level FlightAware Approximate
Fri 02:29:00 PM 34.7403 -78.0786 162° South  Level FlightAware Approximate
Fri 02:30:00 PM 34.7062 -78.0653 162° South  Level FlightAware Approximate
Fri 02:31:00 PM 34.6720 -78.0521 162° South  Level FlightAware Approximate
Fri 02:32:00 PM 34.6378 -78.0391 163° South  Level FlightAware Approximate
Fri 02:33:00 PM 34.6035 -78.0263 163° South  Level FlightAware Approximate
Fri 02:34:00 PM 34.5692 -78.0135 163° South  Level FlightAware Approximate
Fri 02:35:00 PM 34.5350 -78.0006 163° South  Level FlightAware Approximate
Fri 02:36:00 PM 34.5011 -77.9865 161° South  Level FlightAware Approximate
Fri 02:37:00 PM 34.4672 -77.9724 161° South  Level FlightAware Approximate
Fri 02:38:00 PM 34.4333 -77.9583 161° South  Level FlightAware Approximate
Fri 02:39:00 PM 34.3994 -77.9441 161° South  Level FlightAware Approximate
Fri 02:40:00 PM 34.3655 -77.9300 161° South  Level FlightAware Approximate
Fri 02:41:00 PM 34.3315 -77.9162 168° South  Level FlightAware Approximate
Fri 02:42:00 PM 34.2964 -77.9074 168° South  Level FlightAware Approximate
Fri 02:43:00 PM 34.2667 -77.9000 168° South  Level FlightAware Approximate
Fri 02:44:00 PM 34.2706 -77.9026 168° South  Level Estimated
Fri 02:45:00 PM 34.2667 -77.9000 168° South  Level FlightAware Approximate
Fri 02:46:00 PM 34.2706 -77.9026 168° South  Level Estimated

Login

Don't have an account? Register now (free) for customized features, flight alerts, and more!